Terminal Aerodrome Forecast
Issued by NWS

Home | Current Version | Previous Version | Text Only | Print | Product List | Glossary On
Versions: 1 2 3 4 5 6 7 8 9 10 11 12 13 14 15 16 17 18 19 20 21 22
000
FTUS41 KGYX 201720
TAFHIE
TAF
KHIE 201720Z 2018/2118 05007KT P6SM SCT045
     FM210200 07005KT P6SM SCT250
     FM210600 07004KT 4SM BR SCT250
     FM210800 06004KT 1/4SM FG SCT003
     FM211200 06004KT P6SM FEW001
     FM211300 05006KT P6SM FEW250=

USA.gov is the U.S. government's official web portal to all federal, state and local government web resources and services.